Jacobabad Weather



Jacobabad's Current Weather

Temprature 43.53o scattered clouds

scattered clouds

Rain: 0 %

Min Temprature43.53o
Max Temprature43.53o
Humidity25
Wind Speed2.33 m/h
Sun Rise05:55:03
Sun Set19:07:18
Current Time: 13-Aug-2020 19:15:20
Lat/Lon: 28.28, 68.44




Jacobabad's Geo Location



Jacobabad's Weather Forecast

Time Overall Temp Min Temp Max Temp Humidity Wind Speed Rain
13-Aug-2020 (Thu)
20:00:00 scattered clouds 43.940 41.320 43.940 25 5.99 m/h 0 %
23:00:00 scattered clouds 40.520 38.890 40.520 33 4.45 m/h 0 %
14-Aug-2020 (Fri)
02:00:00 clear sky 36.070 35.360 36.070 49 6.02 m/h 0 %
05:00:00 clear sky 33.420 33.310 33.420 58 5.01 m/h 0 %
08:00:00 clear sky 33.890 33.890 33.890 57 3.63 m/h 0 %
11:00:00 clear sky 39.780 39.780 39.780 36 3.29 m/h 0 %
14:00:00 few clouds 43.790 43.790 43.790 27 3.57 m/h 0 %
17:00:00 scattered clouds 44.360 44.360 44.360 25 5.06 m/h 0 %
20:00:00 clear sky 39.540 39.540 39.540 33 6.85 m/h 0 %
23:00:00 clear sky 36.230 36.230 36.230 45 5.42 m/h 0 %
15-Aug-2020 (Sat)
02:00:00 clear sky 34.290 34.290 34.290 54 5.99 m/h 0 %
05:00:00 scattered clouds 32.770 32.770 32.770 56 4.13 m/h 0 %
08:00:00 clear sky 34.640 34.640 34.640 49 4.01 m/h 0 %
11:00:00 clear sky 40.540 40.540 40.540 31 3.8 m/h 0 %
14:00:00 clear sky 44.180 44.180 44.180 24 3.94 m/h 0 %
17:00:00 clear sky 45.170 45.170 45.170 20 4.08 m/h 0 %
20:00:00 clear sky 39.680 39.680 39.680 31 6.77 m/h 0 %
23:00:00 clear sky 36.290 36.290 36.290 48 7.31 m/h 0 %
16-Aug-2020 (Sun)
02:00:00 few clouds 34.030 34.030 34.030 52 6.5 m/h 0 %
05:00:00 clear sky 32.240 32.240 32.240 60 2.23 m/h 0 %
08:00:00 clear sky 33.770 33.770 33.770 57 3.22 m/h 0 %
11:00:00 few clouds 39.980 39.980 39.980 38 2.62 m/h 0 %
14:00:00 overcast clouds 44.860 44.860 44.860 24 2.97 m/h 0 %
17:00:00 broken clouds 46.160 46.160 46.160 19 4.08 m/h 0 %
20:00:00 few clouds 40.160 40.160 40.160 31 7.08 m/h 0 %
23:00:00 broken clouds 36.360 36.360 36.360 48 6.67 m/h 0 %
17-Aug-2020 (Mon)
02:00:00 overcast clouds 33.570 33.570 33.570 55 5.95 m/h 0 %
05:00:00 overcast clouds 32.440 32.440 32.440 58 2.98 m/h 0 %
08:00:00 overcast clouds 33.460 33.460 33.460 56 3.53 m/h 0 %
11:00:00 overcast clouds 39.820 39.820 39.820 38 3.78 m/h 0 %
14:00:00 overcast clouds 44.100 44.100 44.100 26 4.46 m/h 0 %
17:00:00 overcast clouds 42.410 42.410 42.410 29 7.98 m/h 0 %
20:00:00 broken clouds 36.990 36.990 36.990 41 5.94 m/h 0 %
23:00:00 broken clouds 35.270 35.270 35.270 47 4.39 m/h 0 %
18-Aug-2020 (Tue)
02:00:00 light rain 33.040 33.040 33.040 56 3.95 m/h 29 %
05:00:00 light rain 30.930 30.930 30.930 66 2.12 m/h 143 %
08:00:00 scattered clouds 33.190 33.190 33.190 57 2.62 m/h 0 %
11:00:00 broken clouds 38.250 38.250 38.250 40 2.34 m/h 0 %
14:00:00 overcast clouds 41.790 41.790 41.790 31 2.57 m/h 0 %
17:00:00 overcast clouds 41.970 41.970 41.970 30 6.16 m/h 0 %

Famous Cities (60)